createdAt,value
2017-11-26T00:00:03.435Z,22.25
2017-11-26T00:00:07.446Z,22.40
2017-11-26T00:00:11.462Z,22.25
2017-11-26T00:00:15.709Z,22.27
2017-11-26T00:00:20.710Z,23.05
2017-11-26T00:00:24.977Z,23.87
2017-11-26T00:00:29.229Z,24.05
2017-11-26T00:00:33.474Z,23.75
2017-11-26T00:00:37.985Z,23.67
2017-11-26T00:00:42.224Z,23.70
2017-11-26T00:00:46.454Z,23.70
2017-11-26T00:00:50.705Z,23.70
2017-11-26T00:00:54.954Z,23.05
2017-11-26T00:00:59.195Z,21.00
2017-11-26T00:01:03.455Z,20.33
2017-11-26T00:01:08.486Z,20.10
2017-11-26T00:01:12.736Z,20.40
2017-11-26T00:01:17.050Z,20.55
2017-11-26T00:01:21.277Z,20.05
2017-11-26T00:01:25.539Z,19.60
2017-11-26T00:01:29.773Z,19.85
2017-11-26T00:01:34.776Z,42.50
2017-11-26T00:01:39.213Z,57.27
2017-11-26T00:01:44.240Z,50.50
2017-11-26T00:01:48.470Z,38.93
2017-11-26T00:01:52.710Z,34.95
2017-11-26T00:01:56.944Z,33.10
2017-11-26T00:02:01.231Z,31.10
2017-11-26T00:02:05.485Z,29.50
2017-11-26T00:02:09.729Z,28.30
2017-11-26T00:02:13.963Z,27.45
2017-11-26T00:02:18.211Z,26.70
2017-11-26T00:02:22.460Z,26.25
2017-11-26T00:02:26.694Z,26.00
2017-11-26T00:02:31.708Z,25.40
2017-11-26T00:02:36.725Z,23.20
2017-11-26T00:02:40.960Z,20.30
2017-11-26T00:02:45.215Z,19.45
2017-11-26T00:02:49.468Z,19.15
2017-11-26T00:02:53.695Z,18.55
2017-11-26T00:02:57.956Z,18.00
2017-11-26T00:03:02.206Z,17.75
2017-11-26T00:03:06.440Z,17.55
2017-11-26T00:03:11.442Z,17.15
2017-11-26T00:03:16.457Z,16.97
2017-11-26T00:03:20.710Z,16.57
2017-11-26T00:03:24.977Z,16.00
2017-11-26T00:03:29.974Z,15.60
2017-11-26T00:03:34.226Z,15.77
2017-11-26T00:03:38.456Z,15.90
2017-11-26T00:03:42.701Z,16.00
2017-11-26T00:03:46.960Z,63.70
2017-11-26T00:03:51.205Z,132.60
2017-11-26T00:03:55.463Z,151.55
2017-11-26T00:03:59.762Z,152.90
2017-11-26T00:04:04.004Z,107.30
2017-11-26T00:04:08.254Z,51.05
2017-11-26T00:04:12.484Z,37.27
2017-11-26T00:04:17.511Z,31.75
2017-11-26T00:04:21.727Z,28.23
2017-11-26T00:04:25.963Z,26.30
2017-11-26T00:04:30.204Z,27.70
2017-11-26T00:04:35.224Z,89.63
2017-11-26T00:04:40.234Z,130.80
2017-11-26T00:04:45.261Z,122.97
2017-11-26T00:04:50.275Z,70.37
2017-11-26T00:04:55.280Z,53.20
2017-11-26T00:04:59.522Z,47.43
2017-11-26T00:05:03.776Z,44.25
2017-11-26T00:05:08.025Z,42.45
2017-11-26T00:05:12.279Z,40.57
2017-11-26T00:05:16.529Z,40.15
2017-11-26T00:05:20.793Z,41.50
2017-11-26T00:05:25.015Z,43.30
2017-11-26T00:05:29.263Z,45.13
2017-11-26T00:05:33.498Z,45.80
2017-11-26T00:05:38.499Z,45.55
2017-11-26T00:05:43.503Z,42.00
2017-11-26T00:05:47.744Z,38.97
2017-11-26T00:05:52.734Z,37.33
2017-11-26T00:05:56.986Z,36.60
2017-11-26T00:06:01.252Z,36.55
2017-11-26T00:06:06.251Z,36.20
2017-11-26T00:06:10.487Z,36.07
2017-11-26T00:06:14.723Z,35.00
2017-11-26T00:06:18.985Z,33.00
2017-11-26T00:06:23.254Z,30.00
2017-11-26T00:06:27.479Z,27.15
2017-11-26T00:06:31.727Z,24.70
2017-11-26T00:06:35.975Z,22.83
2017-11-26T00:06:40.220Z,22.00
2017-11-26T00:06:44.468Z,22.00
2017-11-26T00:06:49.488Z,22.00
2017-11-26T00:06:54.491Z,22.30
2017-11-26T00:06:58.749Z,22.23
2017-11-26T00:07:02.998Z,22.75
2017-11-26T00:07:08.003Z,23.35
2017-11-26T00:07:12.254Z,24.07
2017-11-26T00:07:16.509Z,25.10
2017-11-26T00:07:20.757Z,25.27
2017-11-26T00:07:24.986Z,25.15
2017-11-26T00:07:29.227Z,25.20
2017-11-26T00:07:33.465Z,25.60
2017-11-26T00:07:37.737Z,26.20
2017-11-26T00:07:41.967Z,26.15
2017-11-26T00:07:46.210Z,25.95
2017-11-26T00:07:51.218Z,25.53
2017-11-26T00:07:55.455Z,25.17
2017-11-26T00:07:59.760Z,24.30
2017-11-26T00:08:04.015Z,22.95
2017-11-26T00:08:08.266Z,21.63
2017-11-26T00:08:12.513Z,20.40
2017-11-26T00:08:16.777Z,19.65
2017-11-26T00:08:21.020Z,19.50
2017-11-26T00:08:25.294Z,19.97
2017-11-26T00:08:29.550Z,20.30
2017-11-26T00:08:34.568Z,20.05
2017-11-26T00:08:39.564Z,19.60
2017-11-26T00:08:43.815Z,19.67
2017-11-26T00:08:48.069Z,19.93
2017-11-26T00:08:52.317Z,20.10
2017-11-26T00:08:56.569Z,20.40
2017-11-26T00:09:00.807Z,21.30
2017-11-26T00:09:05.049Z,22.33
2017-11-26T00:09:09.283Z,23.30
2017-11-26T00:09:13.519Z,24.15
2017-11-26T00:09:17.768Z,25.00
2017-11-26T00:09:22.767Z,25.27
2017-11-26T00:09:27.031Z,24.60
2017-11-26T00:09:31.279Z,23.80
2017-11-26T00:09:35.529Z,23.50
2017-11-26T00:09:39.769Z,23.25
2017-11-26T00:09:44.031Z,23.20
2017-11-26T00:09:48.322Z,23.20
2017-11-26T00:09:52.559Z,23.45
2017-11-26T00:09:56.803Z,23.50
2017-11-26T00:10:01.054Z,22.65
2017-11-26T00:10:05.313Z,21.90
2017-11-26T00:10:09.572Z,21.10
2017-11-26T00:10:13.811Z,20.20
2017-11-26T00:10:18.070Z,19.30
2017-11-26T00:10:22.325Z,19.00
2017-11-26T00:10:26.570Z,18.93
2017-11-26T00:10:30.834Z,19.00
2017-11-26T00:10:35.173Z,18.95
2017-11-26T00:10:39.417Z,19.10
2017-11-26T00:10:43.657Z,19.00
2017-11-26T00:10:47.920Z,18.75
2017-11-26T00:10:52.164Z,18.35
2017-11-26T00:10:56.412Z,17.97
2017-11-26T00:11:00.664Z,17.75
2017-11-26T00:11:04.909Z,17.50
2017-11-26T00:11:09.182Z,17.40
2017-11-26T00:11:13.529Z,17.27
2017-11-26T00:11:18.528Z,17.20
2017-11-26T00:11:22.762Z,17.30
2017-11-26T00:11:27.020Z,17.25
2017-11-26T00:11:32.037Z,17.13
2017-11-26T00:11:37.031Z,16.97
2017-11-26T00:11:41.278Z,16.70
2017-11-26T00:11:45.520Z,16.70
2017-11-26T00:11:49.759Z,16.85
2017-11-26T00:11:54.003Z,16.85
2017-11-26T00:11:58.311Z,16.87
2017-11-26T00:12:02.554Z,17.20
2017-11-26T00:12:07.558Z,17.50
2017-11-26T00:12:11.815Z,17.67
2017-11-26T00:12:16.076Z,17.90
2017-11-26T00:12:21.094Z,17.90
2017-11-26T00:12:26.121Z,18.13
2017-11-26T00:12:30.357Z,18.30
2017-11-26T00:12:34.619Z,18.30
2017-11-26T00:12:38.856Z,18.30
2017-11-26T00:12:43.116Z,18.55
2017-11-26T00:12:48.123Z,18.95
2017-11-26T00:12:53.133Z,19.37
2017-11-26T00:12:58.130Z,20.17
2017-11-26T00:13:02.385Z,21.00
2017-11-26T00:13:06.615Z,20.95
2017-11-26T00:13:11.634Z,21.00
2017-11-26T00:13:15.889Z,20.90
2017-11-26T00:13:20.136Z,20.75
2017-11-26T00:13:24.392Z,20.70
2017-11-26T00:13:28.646Z,20.40
2017-11-26T00:13:32.891Z,20.35
2017-11-26T00:13:37.130Z,20.50
2017-11-26T00:13:41.378Z,20.50
2017-11-26T00:13:46.398Z,20.30
2017-11-26T00:13:51.386Z,19.63
2017-11-26T00:13:55.645Z,18.83
2017-11-26T00:13:59.976Z,17.85
2017-11-26T00:14:04.218Z,17.55
2017-11-26T00:14:09.239Z,17.13
2017-11-26T00:14:14.246Z,17.03
2017-11-26T00:14:19.267Z,16.80
2017-11-26T00:14:24.291Z,16.70
2017-11-26T00:14:28.576Z,16.87
2017-11-26T00:14:32.830Z,16.75
2017-11-26T00:14:37.117Z,16.50
2017-11-26T00:14:41.405Z,16.30
2017-11-26T00:14:45.667Z,16.20
2017-11-26T00:14:49.896Z,16.20
2017-11-26T00:14:54.924Z,16.10
2017-11-26T00:14:59.151Z,16.03
2017-11-26T00:15:03.427Z,16.65
2017-11-26T00:15:07.666Z,17.05
2017-11-26T00:15:11.926Z,17.35
2017-11-26T00:15:16.172Z,17.87
2017-11-26T00:15:20.407Z,18.05
2017-11-26T00:15:24.688Z,18.45
2017-11-26T00:15:28.937Z,18.95
2017-11-26T00:15:33.191Z,19.40
2017-11-26T00:15:37.440Z,19.70
2017-11-26T00:15:41.720Z,19.90
2017-11-26T00:15:45.957Z,20.00
2017-11-26T00:15:50.208Z,20.35
2017-11-26T00:15:55.210Z,20.60
2017-11-26T00:15:59.469Z,20.43
2017-11-26T00:16:03.704Z,19.70
2017-11-26T00:16:07.966Z,19.20
2017-11-26T00:16:12.201Z,18.75
2017-11-26T00:16:16.450Z,18.70
2017-11-26T00:16:20.688Z,18.67
2017-11-26T00:16:24.932Z,18.15
2017-11-26T00:16:29.950Z,17.70
2017-11-26T00:16:34.963Z,17.50
2017-11-26T00:16:39.212Z,17.43
2017-11-26T00:16:43.461Z,18.75
2017-11-26T00:16:48.476Z,50.50
2017-11-26T00:16:53.479Z,63.67
2017-11-26T00:16:57.743Z,63.40
2017-11-26T00:17:01.996Z,61.35
2017-11-26T00:17:07.013Z,57.55
2017-11-26T00:17:12.007Z,53.20
2017-11-26T00:17:16.249Z,49.00
2017-11-26T00:17:20.514Z,45.43
2017-11-26T00:17:24.756Z,42.85
2017-11-26T00:17:29.004Z,40.95
2017-11-26T00:17:33.249Z,39.65
2017-11-26T00:17:37.507Z,38.13
2017-11-26T00:17:41.755Z,36.85
2017-11-26T00:17:45.988Z,33.10
2017-11-26T00:17:50.251Z,29.07
2017-11-26T00:17:54.481Z,25.85
2017-11-26T00:17:58.727Z,23.00
2017-11-26T00:18:03.726Z,21.30
2017-11-26T00:18:07.968Z,20.73
2017-11-26T00:18:12.236Z,20.63
2017-11-26T00:18:16.477Z,20.50
2017-11-26T00:18:20.726Z,20.25
2017-11-26T00:18:24.984Z,20.05
2017-11-26T00:18:29.223Z,19.80
2017-11-26T00:18:33.466Z,19.35
2017-11-26T00:18:37.711Z,19.15
2017-11-26T00:18:41.954Z,18.97
2017-11-26T00:18:46.975Z,18.90
2017-11-26T00:18:51.974Z,18.90
2017-11-26T00:18:57.005Z,18.83
2017-11-26T00:19:02.026Z,18.77
2017-11-26T00:19:07.059Z,18.10
2017-11-26T00:19:12.064Z,17.60
2017-11-26T00:19:17.080Z,17.30
2017-11-26T00:19:22.078Z,17.30
2017-11-26T00:19:26.383Z,17.43
2017-11-26T00:19:30.617Z,17.50
2017-11-26T00:19:34.868Z,17.47
2017-11-26T00:19:39.106Z,17.50
2017-11-26T00:19:43.356Z,17.45
2017-11-26T00:19:47.617Z,17.57
2017-11-26T00:19:51.879Z,17.15
2017-11-26T00:19:56.110Z,17.10
2017-11-26T00:20:00.409Z,17.05
2017-11-26T00:20:04.661Z,16.83
2017-11-26T00:20:09.687Z,16.55
2017-11-26T00:20:13.950Z,16.50
2017-11-26T00:20:18.204Z,16.60
2017-11-26T00:20:22.432Z,16.60
2017-11-26T00:20:26.675Z,16.65
2017-11-26T00:20:30.922Z,17.15
2017-11-26T00:20:35.937Z,17.55
2017-11-26T00:20:40.981Z,17.97
2017-11-26T00:20:45.964Z,18.50
2017-11-26T00:20:50.966Z,18.77
2017-11-26T00:20:55.202Z,20.27
2017-11-26T00:20:59.457Z,22.50
2017-11-26T00:21:03.707Z,24.65
2017-11-26T00:21:07.988Z,25.75
2017-11-26T00:21:12.209Z,26.40
2017-11-26T00:21:16.442Z,26.25
2017-11-26T00:21:20.693Z,26.10
2017-11-26T00:21:25.711Z,25.80
2017-11-26T00:21:30.730Z,25.50
2017-11-26T00:21:35.714Z,25.10
2017-11-26T00:21:39.948Z,24.70
2017-11-26T00:21:44.202Z,24.23
2017-11-26T00:21:48.455Z,23.90
2017-11-26T00:21:52.702Z,23.25
2017-11-26T00:21:56.933Z,21.53
2017-11-26T00:22:01.951Z,19.70
2017-11-26T00:22:06.989Z,18.27
2017-11-26T00:22:11.240Z,17.57
2017-11-26T00:22:15.488Z,17.75
2017-11-26T00:22:20.512Z,17.90
2017-11-26T00:22:24.746Z,18.13
2017-11-26T00:22:29.008Z,18.17
2017-11-26T00:22:33.250Z,18.00
2017-11-26T00:22:37.545Z,18.00
2017-11-26T00:22:41.793Z,17.90
2017-11-26T00:22:46.845Z,17.95
2017-11-26T00:22:51.832Z,17.87
2017-11-26T00:22:56.839Z,17.70
2017-11-26T00:23:01.871Z,17.63
2017-11-26T00:23:06.881Z,17.63
2017-11-26T00:23:11.874Z,17.60
2017-11-26T00:23:16.134Z,17.50
2017-11-26T00:23:20.364Z,17.50
2017-11-26T00:23:24.605Z,17.43
2017-11-26T00:23:29.631Z,17.30
2017-11-26T00:23:34.648Z,17.20
2017-11-26T00:23:39.594Z,17.53
2017-11-26T00:23:43.852Z,18.13
2017-11-26T00:23:48.864Z,18.50
2017-11-26T00:23:53.107Z,19.10
2017-11-26T00:23:57.338Z,19.47
2017-11-26T00:24:01.630Z,19.30
2017-11-26T00:24:05.867Z,19.05
2017-11-26T00:24:10.121Z,19.10
2017-11-26T00:24:14.364Z,19.47
2017-11-26T00:24:18.611Z,19.60
2017-11-26T00:24:22.839Z,19.85
2017-11-26T00:24:27.095Z,20.00
2017-11-26T00:24:31.343Z,20.10
2017-11-26T00:24:35.578Z,20.10
2017-11-26T00:24:39.828Z,19.75
2017-11-26T00:24:44.084Z,19.63
2017-11-26T00:24:48.356Z,19.40
2017-11-26T00:24:52.595Z,19.15
2017-11-26T00:24:56.832Z,18.90
2017-11-26T00:25:01.100Z,18.93
2017-11-26T00:25:05.345Z,19.10
2017-11-26T00:25:11.096Z,18.95
2017-11-26T00:25:15.362Z,18.52
2017-11-26T00:25:19.612Z,18.20
2017-11-26T00:25:24.622Z,17.90
2017-11-26T00:25:29.643Z,17.80
2017-11-26T00:25:34.677Z,17.73
2017-11-26T00:25:38.914Z,17.60
2017-11-26T00:25:43.152Z,17.35
2017-11-26T00:25:48.179Z,17.10
2017-11-26T00:25:52.414Z,16.70
2017-11-26T00:25:56.676Z,17.17
2017-11-26T00:26:01.708Z,17.55
2017-11-26T00:26:06.713Z,17.60
2017-11-26T00:26:11.723Z,17.97
2017-11-26T00:26:16.734Z,18.10
2017-11-26T00:26:20.970Z,18.20
2017-11-26T00:26:25.203Z,18.20
2017-11-26T00:26:29.480Z,18.20
2017-11-26T00:26:33.717Z,18.33
2017-11-26T00:26:37.951Z,18.40
2017-11-26T00:26:42.973Z,18.30
2017-11-26T00:26:47.987Z,18.27
2017-11-26T00:26:52.252Z,18.43
2017-11-26T00:26:56.508Z,17.93
2017-11-26T00:27:00.738Z,17.40
2017-11-26T00:27:04.971Z,17.20
2017-11-26T00:27:09.211Z,17.35
2017-11-26T00:27:13.455Z,18.20
2017-11-26T00:27:17.692Z,19.30
2017-11-26T00:27:22.705Z,20.30
2017-11-26T00:27:27.715Z,21.37
2017-11-26T00:27:32.732Z,22.27
2017-11-26T00:27:36.960Z,22.70
2017-11-26T00:27:41.209Z,23.00
2017-11-26T00:27:45.461Z,23.30
2017-11-26T00:27:49.713Z,23.50
2017-11-26T00:27:53.942Z,23.25
2017-11-26T00:27:58.940Z,23.13
2017-11-26T00:28:03.200Z,23.03
2017-11-26T00:28:07.432Z,22.70
2017-11-26T00:28:11.676Z,21.70
2017-11-26T00:28:15.928Z,20.45
2017-11-26T00:28:20.167Z,19.30
2017-11-26T00:28:24.420Z,18.05
2017-11-26T00:28:28.655Z,17.40
2017-11-26T00:28:33.651Z,16.70
2017-11-26T00:28:37.890Z,16.20
2017-11-26T00:28:42.137Z,15.65
2017-11-26T00:28:46.371Z,15.35
2017-11-26T00:28:51.403Z,15.20
2017-11-26T00:28:55.640Z,15.23
2017-11-26T00:28:59.908Z,15.30
2017-11-26T00:29:04.148Z,15.30
2017-11-26T00:29:08.409Z,15.40
2017-11-26T00:29:14.885Z,15.47
2017-11-26T00:29:19.112Z,15.50
2017-11-26T00:29:23.356Z,15.50
2017-11-26T00:29:28.372Z,15.37
2017-11-26T00:29:33.374Z,15.20
2017-11-26T00:29:38.385Z,15.40
2017-11-26T00:29:42.647Z,15.57
2017-11-26T00:29:46.904Z,15.60
2017-11-26T00:29:51.925Z,15.80
2017-11-26T00:29:57.730Z,15.80
2017-11-26T00:30:02.034Z,15.90
2017-11-26T00:30:06.268Z,15.80
2017-11-26T00:30:10.506Z,15.80
2017-11-26T00:30:14.769Z,15.95
2017-11-26T00:30:19.016Z,16.05
2017-11-26T00:30:23.264Z,16.55
2017-11-26T00:30:27.511Z,16.90
2017-11-26T00:30:31.769Z,17.25
2017-11-26T00:30:36.020Z,17.30
2017-11-26T00:30:40.256Z,17.50
2017-11-26T00:30:45.282Z,17.55
2017-11-26T00:30:50.290Z,17.40
2017-11-26T00:30:55.311Z,17.50
2017-11-26T00:31:00.336Z,17.90
2017-11-26T00:31:05.357Z,18.50
2017-11-26T00:31:09.614Z,19.10
2017-11-26T00:31:13.868Z,19.30
2017-11-26T00:31:18.130Z,19.17
2017-11-26T00:31:22.377Z,18.55
2017-11-26T00:31:26.612Z,18.25
2017-11-26T00:31:30.917Z,17.90
2017-11-26T00:31:35.174Z,17.80
2017-11-26T00:31:39.422Z,17.70
2017-11-26T00:31:43.678Z,17.60
2017-11-26T00:31:47.918Z,17.60
2017-11-26T00:31:52.157Z,17.45
2017-11-26T00:31:56.403Z,17.20
2017-11-26T00:32:01.437Z,17.25
2017-11-26T00:32:05.672Z,16.60
2017-11-26T00:32:10.689Z,16.10
2017-11-26T00:32:15.691Z,15.73
2017-11-26T00:32:20.688Z,15.90
2017-11-26T00:32:24.930Z,16.10
2017-11-26T00:32:29.176Z,16.10
2017-11-26T00:32:34.175Z,16.00
2017-11-26T00:32:38.426Z,16.00
2017-11-26T00:32:42.714Z,16.00
2017-11-26T00:32:46.973Z,15.90
2017-11-26T00:32:51.196Z,15.85
2017-11-26T00:32:55.445Z,15.90
2017-11-26T00:33:00.457Z,15.83
2017-11-26T00:33:05.471Z,16.67
2017-11-26T00:33:10.499Z,17.70
2017-11-26T00:33:15.513Z,18.57
2017-11-26T00:33:20.518Z,19.10
2017-11-26T00:33:25.536Z,19.37
2017-11-26T00:33:30.551Z,19.70
2017-11-26T00:33:35.572Z,20.03
2017-11-26T00:33:39.824Z,20.17
2017-11-26T00:33:44.045Z,20.25
2017-11-26T00:33:48.277Z,20.60
2017-11-26T00:33:53.316Z,20.60
2017-11-26T00:33:57.558Z,20.77
2017-11-26T00:34:01.803Z,20.20
2017-11-26T00:34:06.825Z,19.50
2017-11-26T00:34:11.833Z,18.80
2017-11-26T00:34:16.848Z,18.15
2017-11-26T00:34:21.864Z,17.83
2017-11-26T00:34:26.867Z,17.77
2017-11-26T00:34:31.115Z,17.53
2017-11-26T00:34:35.373Z,17.70
2017-11-26T00:34:39.612Z,17.60
2017-11-26T00:34:43.854Z,17.50
2017-11-26T00:34:48.117Z,17.40
2017-11-26T00:34:52.346Z,17.25
2017-11-26T00:34:56.598Z,17.10
2017-11-26T00:35:00.852Z,17.17
2017-11-26T00:35:05.111Z,17.10
2017-11-26T00:35:09.357Z,17.00
2017-11-26T00:35:13.590Z,17.00
2017-11-26T00:35:18.595Z,17.10
2017-11-26T00:35:23.599Z,17.17
2017-11-26T00:35:27.858Z,17.00
2017-11-26T00:35:32.109Z,16.85
2017-11-26T00:35:36.367Z,16.60
2017-11-26T00:35:40.598Z,16.80
2017-11-26T00:35:44.842Z,16.80
2017-11-26T00:35:49.124Z,17.00
2017-11-26T00:35:53.322Z,17.00
2017-11-26T00:35:58.319Z,16.97
2017-11-26T00:36:02.573Z,17.00
2017-11-26T00:36:06.818Z,17.00
2017-11-26T00:36:11.048Z,16.95
2017-11-26T00:36:15.314Z,16.80
2017-11-26T00:36:19.562Z,16.53
2017-11-26T00:36:23.813Z,16.75
2017-11-26T00:36:28.063Z,17.55
2017-11-26T00:36:32.297Z,18.15
2017-11-26T00:36:36.537Z,18.83
2017-11-26T00:36:41.556Z,19.20
2017-11-26T00:36:46.567Z,19.17
2017-11-26T00:36:51.604Z,19.10
2017-11-26T00:36:56.612Z,19.00
2017-11-26T00:37:01.611Z,19.07
2017-11-26T00:37:05.865Z,19.10
2017-11-26T00:37:10.108Z,19.15
2017-11-26T00:37:14.342Z,18.90
2017-11-26T00:37:18.583Z,18.80
2017-11-26T00:37:22.838Z,18.75
2017-11-26T00:37:27.850Z,17.80
2017-11-26T00:37:32.851Z,16.83
2017-11-26T00:37:37.107Z,16.10
2017-11-26T00:37:41.336Z,15.70
2017-11-26T00:37:45.572Z,15.75
2017-11-26T00:37:49.821Z,16.05
2017-11-26T00:37:54.068Z,16.70
2017-11-26T00:37:59.080Z,17.80
2017-11-26T00:38:04.086Z,18.70
2017-11-26T00:38:09.110Z,19.00
2017-11-26T00:38:13.342Z,19.40
2017-11-26T00:38:18.376Z,19.85
2017-11-26T00:38:22.612Z,20.10
2017-11-26T00:38:26.914Z,20.37
2017-11-26T00:38:31.170Z,20.60
2017-11-26T00:38:35.416Z,20.70
2017-11-26T00:38:39.696Z,20.70
2017-11-26T00:38:43.946Z,20.80
2017-11-26T00:38:48.202Z,20.80
2017-11-26T00:38:52.445Z,20.70
2017-11-26T00:38:57.464Z,20.10
2017-11-26T00:39:02.454Z,19.23
2017-11-26T00:39:06.707Z,18.97
2017-11-26T00:39:10.935Z,18.80
2017-11-26T00:39:15.189Z,18.65
2017-11-26T00:39:19.431Z,18.55
2017-11-26T00:39:23.675Z,18.47
2017-11-26T00:39:28.689Z,18.50
2017-11-26T00:39:33.718Z,18.60
2017-11-26T00:39:38.711Z,18.53
2017-11-26T00:39:42.947Z,18.70
2017-11-26T00:39:47.209Z,18.55
2017-11-26T00:39:51.464Z,18.67
2017-11-26T00:39:55.700Z,18.95
2017-11-26T00:40:00.024Z,18.85
2017-11-26T00:40:04.238Z,18.47
2017-11-26T00:40:08.495Z,18.35
2017-11-26T00:40:12.760Z,18.20
2017-11-26T00:40:16.983Z,18.30
2017-11-26T00:40:21.241Z,18.57
2017-11-26T00:40:25.494Z,18.50
2017-11-26T00:40:29.744Z,18.75
2017-11-26T00:40:33.983Z,18.70
2017-11-26T00:40:38.258Z,18.60
2017-11-26T00:40:42.492Z,18.70
2017-11-26T00:40:46.751Z,18.60
2017-11-26T00:40:51.005Z,18.05
2017-11-26T00:40:55.243Z,17.45
2017-11-26T00:40:59.483Z,17.35
2017-11-26T00:41:03.716Z,17.60
2017-11-26T00:41:08.724Z,17.80
2017-11-26T00:41:12.989Z,18.30
2017-11-26T00:41:17.233Z,18.35
2017-11-26T00:41:22.232Z,18.30
2017-11-26T00:41:26.473Z,18.47
2017-11-26T00:41:31.486Z,18.55
2017-11-26T00:41:36.493Z,18.77
2017-11-26T00:41:41.495Z,18.80
2017-11-26T00:41:45.726Z,18.80
2017-11-26T00:41:49.989Z,18.90
2017-11-26T00:41:54.238Z,18.90
2017-11-26T00:41:58.477Z,18.90
2017-11-26T00:42:02.731Z,18.70
2017-11-26T00:42:06.963Z,18.45
2017-11-26T00:42:11.198Z,18.05
2017-11-26T00:42:15.455Z,17.70
2017-11-26T00:42:19.702Z,17.70
2017-11-26T00:42:23.948Z,17.70
2017-11-26T00:42:28.200Z,17.80
2017-11-26T00:42:32.451Z,17.70
2017-11-26T00:42:36.713Z,17.60
2017-11-26T00:42:41.717Z,17.85
2017-11-26T00:42:45.950Z,17.73
2017-11-26T00:42:50.202Z,17.40
2017-11-26T00:42:54.448Z,17.47
2017-11-26T00:42:58.697Z,17.45
2017-11-26T00:43:02.927Z,17.35
2017-11-26T00:43:07.934Z,17.25
2017-11-26T00:43:12.172Z,17.47
2017-11-26T00:43:16.420Z,17.53
2017-11-26T00:43:20.658Z,17.35
2017-11-26T00:43:24.900Z,16.85
2017-11-26T00:43:29.155Z,16.40
2017-11-26T00:43:33.787Z,16.40
2017-11-26T00:43:38.055Z,16.55
2017-11-26T00:43:43.100Z,16.20
2017-11-26T00:43:47.312Z,16.37
2017-11-26T00:43:51.562Z,16.30
2017-11-26T00:43:55.814Z,16.20
2017-11-26T00:44:00.135Z,16.23
2017-11-26T00:44:04.379Z,16.55
2017-11-26T00:44:09.392Z,16.50
2017-11-26T00:44:14.386Z,16.40
2017-11-26T00:44:18.665Z,16.30
2017-11-26T00:44:22.922Z,16.30
2017-11-26T00:44:27.188Z,16.20
2017-11-26T00:44:31.437Z,16.10
2017-11-26T00:44:35.700Z,15.90
2017-11-26T00:44:39.940Z,16.00
2017-11-26T00:44:44.187Z,16.30
2017-11-26T00:44:48.448Z,16.35
2017-11-26T00:44:52.696Z,16.50
2017-11-26T00:44:56.963Z,16.50
2017-11-26T00:45:01.204Z,16.50
2017-11-26T00:45:06.221Z,16.45
2017-11-26T00:45:10.465Z,16.60
2017-11-26T00:45:14.711Z,16.40
2017-11-26T00:45:18.967Z,16.20
2017-11-26T00:45:23.200Z,16.35
2017-11-26T00:45:27.442Z,16.50
2017-11-26T00:45:31.700Z,16.77
2017-11-26T00:45:35.973Z,16.65
2017-11-26T00:45:40.205Z,16.35
2017-11-26T00:45:44.452Z,16.20
2017-11-26T00:45:48.690Z,16.20
2017-11-26T00:45:52.924Z,16.05
2017-11-26T00:45:57.939Z,15.90
2017-11-26T00:46:02.180Z,15.90
2017-11-26T00:46:06.430Z,16.00
2017-11-26T00:46:10.672Z,16.20
2017-11-26T00:46:14.922Z,16.45
2017-11-26T00:46:19.222Z,16.60
2017-11-26T00:46:23.489Z,16.53
2017-11-26T00:46:27.751Z,16.60
2017-11-26T00:46:32.762Z,16.50
2017-11-26T00:46:37.791Z,16.80
2017-11-26T00:46:42.778Z,17.20
2017-11-26T00:46:47.029Z,17.03
2017-11-26T00:46:51.295Z,16.93
2017-11-26T00:46:55.540Z,17.15
2017-11-26T00:46:59.770Z,17.40
2017-11-26T00:47:04.023Z,17.07
2017-11-26T00:47:08.309Z,17.10
2017-11-26T00:47:13.319Z,17.35
2017-11-26T00:47:18.324Z,17.63
2017-11-26T00:47:22.559Z,17.80
2017-11-26T00:47:26.809Z,17.70
2017-11-26T00:47:31.074Z,17.63
2017-11-26T00:47:35.328Z,17.35
2017-11-26T00:47:39.554Z,17.20
2017-11-26T00:47:43.790Z,17.45
2017-11-26T00:47:48.812Z,19.03
2017-11-26T00:47:53.049Z,19.87
2017-11-26T00:47:58.060Z,20.55
2017-11-26T00:48:02.304Z,20.87
2017-11-26T00:48:06.549Z,21.05
2017-11-26T00:48:10.801Z,20.93
2017-11-26T00:48:15.054Z,20.75
2017-11-26T00:48:19.330Z,20.35
2017-11-26T00:48:23.576Z,20.30
2017-11-26T00:48:28.573Z,20.40
2017-11-26T00:48:32.833Z,20.50
2017-11-26T00:48:37.062Z,20.65
2017-11-26T00:48:41.311Z,20.50
2017-11-26T00:48:45.552Z,19.77
2017-11-26T00:48:49.807Z,18.75
2017-11-26T00:48:54.050Z,18.35
2017-11-26T00:48:58.287Z,18.10
2017-11-26T00:49:03.286Z,18.17
2017-11-26T00:49:07.545Z,18.27
2017-11-26T00:49:11.815Z,18.20
2017-11-26T00:49:16.049Z,18.30
2017-11-26T00:49:20.473Z,19.00
2017-11-26T00:49:24.716Z,19.30
2017-11-26T00:49:30.067Z,19.45
2017-11-26T00:49:35.054Z,19.50
2017-11-26T00:49:40.070Z,19.70
2017-11-26T00:49:44.320Z,19.87
2017-11-26T00:49:48.583Z,19.80
2017-11-26T00:49:53.582Z,19.95
2017-11-26T00:49:57.836Z,19.83
2017-11-26T00:50:02.092Z,19.50
2017-11-26T00:50:07.115Z,19.10
2017-11-26T00:50:12.139Z,19.20
2017-11-26T00:50:17.165Z,18.77
2017-11-26T00:50:21.413Z,18.13
2017-11-26T00:50:26.422Z,17.80
2017-11-26T00:50:30.673Z,17.70
2017-11-26T00:50:34.929Z,17.47
2017-11-26T00:50:39.172Z,17.15
2017-11-26T00:50:44.197Z,16.95
2017-11-26T00:50:49.208Z,17.07
2017-11-26T00:50:54.252Z,16.60
2017-11-26T00:50:59.244Z,16.53
2017-11-26T00:51:04.261Z,16.97
2017-11-26T00:51:09.276Z,17.35
2017-11-26T00:51:14.283Z,17.30
2017-11-26T00:51:19.280Z,17.60
2017-11-26T00:51:23.518Z,17.83
2017-11-26T00:51:27.768Z,17.93
2017-11-26T00:51:32.007Z,18.20
2017-11-26T00:51:37.022Z,18.55
2017-11-26T00:51:42.056Z,18.70
2017-11-26T00:51:47.072Z,18.67
2017-11-26T00:51:52.076Z,18.80
2017-11-26T00:51:56.311Z,18.80
2017-11-26T00:52:00.629Z,18.43
2017-11-26T00:52:05.170Z,18.00
2017-11-26T00:52:09.467Z,17.57
2017-11-26T00:52:13.710Z,17.35
2017-11-26T00:52:17.955Z,17.10
2017-11-26T00:52:23.018Z,16.85
2017-11-26T00:52:27.294Z,16.77
2017-11-26T00:52:31.539Z,16.23
2017-11-26T00:52:35.797Z,15.90
2017-11-26T00:52:40.049Z,15.70
2017-11-26T00:52:44.385Z,15.57
2017-11-26T00:52:48.614Z,15.40
2017-11-26T00:52:53.651Z,15.30
2017-11-26T00:52:57.883Z,15.20
2017-11-26T00:53:02.137Z,15.20
2017-11-26T00:53:07.137Z,15.10
2017-11-26T00:53:12.153Z,15.17
2017-11-26T00:53:16.453Z,15.17
2017-11-26T00:53:20.705Z,15.15
2017-11-26T00:53:24.936Z,15.20
2017-11-26T00:53:29.204Z,15.30
2017-11-26T00:53:33.443Z,15.30
2017-11-26T00:53:37.717Z,15.20
2017-11-26T00:53:41.954Z,15.10
2017-11-26T00:53:46.207Z,15.25
2017-11-26T00:53:50.463Z,15.70
2017-11-26T00:53:54.712Z,16.50
2017-11-26T00:53:59.012Z,16.90
2017-11-26T00:54:03.262Z,17.05
2017-11-26T00:54:08.274Z,17.20
2017-11-26T00:54:12.540Z,17.40
2017-11-26T00:54:16.786Z,17.40
2017-11-26T00:54:21.800Z,17.25
2017-11-26T00:54:26.840Z,17.23
2017-11-26T00:54:31.846Z,17.37
2017-11-26T00:54:36.855Z,17.37
2017-11-26T00:54:41.876Z,17.33
2017-11-26T00:54:46.891Z,17.07
2017-11-26T00:54:51.917Z,16.43
2017-11-26T00:54:56.923Z,15.57
2017-11-26T00:55:01.936Z,15.50
2017-11-26T00:55:06.179Z,15.30
2017-11-26T00:55:10.430Z,15.30
2017-11-26T00:55:14.695Z,15.20
2017-11-26T00:55:18.938Z,15.55
2017-11-26T00:55:23.169Z,15.75
2017-11-26T00:55:27.410Z,15.77
2017-11-26T00:55:31.664Z,15.80
2017-11-26T00:55:35.898Z,16.00
2017-11-26T00:55:40.900Z,16.00
2017-11-26T00:55:45.150Z,16.20
2017-11-26T00:55:49.387Z,16.20
2017-11-26T00:55:53.628Z,16.20
2017-11-26T00:55:57.867Z,16.20
2017-11-26T00:56:02.871Z,16.15
2017-11-26T00:56:07.123Z,16.23
2017-11-26T00:56:11.371Z,16.33
2017-11-26T00:56:15.621Z,16.40
2017-11-26T00:56:19.874Z,15.90
2017-11-26T00:56:24.109Z,15.80
2017-11-26T00:56:28.367Z,15.90
2017-11-26T00:56:32.621Z,16.60
2017-11-26T00:56:36.851Z,17.10
2017-11-26T00:56:41.077Z,17.63
2017-11-26T00:56:46.086Z,18.05
2017-11-26T00:56:50.319Z,18.20
2017-11-26T00:56:54.562Z,18.20
2017-11-26T00:56:58.804Z,18.15
2017-11-26T00:57:03.815Z,18.27
2017-11-26T00:57:08.806Z,18.27
2017-11-26T00:57:13.067Z,18.10
2017-11-26T00:57:17.316Z,18.00
2017-11-26T00:57:21.570Z,18.10
2017-11-26T00:57:25.807Z,17.97